SCCI 220500Z 27011KT 9999 FEW016 BKN030 02/00 Q0997 NOSIG